Time;durP1;ratioP1;P1;durP2;ratioP2;P2;SDS_P1;SDS_P2;PMS_P1;PMS_P2;Temp;Humidity;BMP_temperature;BMP_pressure;BME280_temperature;BME280_humidity;BME280_pressure;Samples;Min_cycle;Max_cycle;Signal;HPM_P1;HPM_P2
2023/12/19 00:00:06;;;;;;;2.83;1.08;;;;;;;3.09;100.00;98867.03;5069724;28;20441;-60
2023/12/19 00:02:32;;;;;;;2.17;1.17;;;;;;;3.36;100.00;98907.66;5065145;28;20040;-57
2023/12/19 00:04:57;;;;;;;1.67;1.00;;;;;;;3.29;100.00;98885.53;5085332;28;20050;-61
2023/12/19 00:07:23;;;;;;;0.68;0.63;;;;;;;3.39;100.00;98896.50;5074345;28;20032;-61
2023/12/19 00:09:49;;;;;;;4.32;0.93;;;;;;;3.34;100.00;98900.88;5074029;28;20040;-61
2023/12/19 00:12:15;;;;;;;0.98;0.70;;;;;;;3.33;100.00;98899.16;5073344;28;20044;-60
2023/12/19 00:14:41;;;;;;;1.65;0.90;;;;;;;3.29;100.00;98893.25;5074168;28;20409;-61
2023/12/19 00:17:07;;;;;;;0.90;0.55;;;;;;;3.20;100.00;98892.53;5072228;28;20533;-61
2023/12/19 00:19:33;;;;;;;1.58;1.00;;;;;;;3.18;100.00;98892.59;5062260;28;20048;-60
2023/12/19 00:21:59;;;;;;;1.90;0.80;;;;;;;3.24;100.00;98895.06;5073983;28;20138;-60
2023/12/19 00:24:25;;;;;;;2.03;0.77;;;;;;;3.18;100.00;98902.84;5069814;28;20113;-61
2023/12/19 00:26:51;;;;;;;1.23;0.70;;;;;;;3.13;100.00;98903.81;5071228;28;20075;-61
2023/12/19 00:29:17;;;;;;;1.85;1.20;;;;;;;3.14;100.00;98903.75;5072058;28;20099;-62
2023/12/19 00:31:43;;;;;;;0.82;0.60;;;;;;;3.14;100.00;98900.38;5071263;28;20044;-61
2023/12/19 00:34:09;;;;;;;1.67;0.70;;;;;;;3.12;100.00;98894.41;5071964;28;20041;-60
2023/12/19 00:36:35;;;;;;;1.20;0.70;;;;;;;3.21;100.00;98899.38;5069580;28;20066;-61
2023/12/19 00:39:04;;;;;;;0.55;0.32;;;;;;;3.25;100.00;98906.16;5083567;28;20527;-62
2023/12/19 00:41:30;;;;;;;1.38;0.50;;;;;;;3.23;100.00;98895.91;5071755;28;20032;-61
2023/12/19 00:43:56;;;;;;;2.80;1.10;;;;;;;2.85;100.00;98818.69;5070157;28;20563;-61
2023/12/19 00:46:22;;;;;;;2.58;1.23;;;;;;;3.29;100.00;98889.84;5066972;28;20032;-60
2023/12/19 00:48:48;;;;;;;5.43;0.98;;;;;;;3.22;100.00;98883.09;5072817;28;20431;-61
2023/12/19 00:51:14;;;;;;;1.95;1.10;;;;;;;3.06;100.00;98849.13;5074899;28;20090;-61
2023/12/19 00:53:41;;;;;;;2.15;1.35;;;;;;;3.23;100.00;98887.38;5075296;28;20052;-61
2023/12/19 00:56:10;;;;;;;3.00;1.67;;;;;;;3.33;100.00;98887.19;5073002;28;20040;-61
2023/12/19 00:58:36;;;;;;;1.85;1.02;;;;;;;3.36;100.00;98881.13;5072445;28;20458;-60
2023/12/19 01:01:03;;;;;;;4.30;1.50;;;;;;;3.32;100.00;98870.06;5068806;28;20040;-61
2023/12/19 01:03:29;;;;;;;2.65;1.52;;;;;;;3.26;100.00;98884.72;5079150;28;20404;-62
2023/12/19 01:05:55;;;;;;;3.72;1.67;;;;;;;2.98;100.00;98851.00;5052784;28;20221;-61
2023/12/19 01:08:21;;;;;;;2.08;1.33;;;;;;;3.21;100.00;98881.41;5070448;28;20048;-61
2023/12/19 01:10:47;;;;;;;5.05;1.48;;;;;;;3.28;100.00;98894.13;5072601;28;20036;-60
2023/12/19 01:13:13;;;;;;;3.78;1.40;;;;;;;3.22;100.00;98878.81;5073109;28;20573;-61
2023/12/19 01:15:39;;;;;;;2.85;1.42;;;;;;;3.31;100.00;98888.91;5072808;28;20051;-61
2023/12/19 01:18:04;;;;;;;1.75;1.27;;;;;;;3.42;100.00;98893.84;5071602;28;20051;-61
2023/12/19 01:20:30;;;;;;;2.67;1.50;;;;;;;3.19;100.00;98842.06;5072300;28;20075;-62
2023/12/19 01:22:56;;;;;;;1.30;0.85;;;;;;;3.41;100.00;98882.72;5060200;28;20075;-61
2023/12/19 01:25:22;;;;;;;3.60;1.10;;;;;;;3.40;100.00;98883.59;5072861;28;20526;-61
2023/12/19 01:27:48;;;;;;;1.45;1.00;;;;;;;3.39;100.00;98883.66;5072804;28;20036;-62
2023/12/19 01:30:13;;;;;;;0.52;0.45;;;;;;;3.09;100.00;98831.09;5072143;28;20044;-60
2023/12/19 01:32:39;;;;;;;1.85;1.30;;;;;;;3.34;100.00;98885.47;5072524;28;20051;-61
2023/12/19 01:35:06;;;;;;;1.77;1.02;;;;;;;3.38;100.00;98884.50;5067930;28;20111;-61
2023/12/19 01:37:32;;;;;;;2.97;1.40;;;;;;;3.38;100.00;98877.66;5077868;28;20259;-61
2023/12/19 01:39:58;;;;;;;1.80;0.88;;;;;;;3.41;100.00;98897.28;5074321;28;20135;-59
2023/12/19 01:42:24;;;;;;;1.70;1.15;;;;;;;3.37;100.00;98898.22;5072658;28;20067;-61
2023/12/19 01:45:11;;;;;;;3.55;1.33;;;;;;;3.41;100.00;98905.00;5072114;28;20041;-62
2023/12/19 01:47:39;;;;;;;1.85;1.05;;;;;;;3.40;100.00;98890.50;5071910;28;20040;-61
2023/12/19 01:50:09;;;;;;;2.00;0.95;;;;;;;3.42;100.00;98889.56;5075605;28;20051;-59
2023/12/19 01:52:36;;;;;;;1.75;1.00;;;;;;;3.48;100.00;98888.59;5073298;28;20157;-60
2023/12/19 01:55:02;;;;;;;1.70;1.00;;;;;;;3.48;100.00;98880.91;5072159;28;20040;-60
2023/12/19 01:57:30;;;;;;;2.60;1.33;;;;;;;3.50;100.00;98879.16;5090034;28;20042;-60
2023/12/19 01:59:57;;;;;;;2.13;1.50;;;;;;;3.49;100.00;98890.31;5069891;28;20066;-60
2023/12/19 02:02:22;;;;;;;1.55;1.17;;;;;;;3.31;100.00;98864.94;5072801;28;20127;-61
2023/12/19 02:04:49;;;;;;;2.00;1.23;;;;;;;3.46;100.00;98892.91;5071187;28;20158;-62
2023/12/19 02:07:14;;;;;;;3.80;1.65;;;;;;;3.51;100.00;98893.69;5071970;28;20047;-61
2023/12/19 02:09:40;;;;;;;3.03;1.27;;;;;;;3.53;100.00;98901.38;5067217;28;20041;-61
2023/12/19 02:12:08;;;;;;;2.22;1.27;;;;;;;3.53;100.00;98894.50;5072997;28;20040;-61
2023/12/19 02:14:34;;;;;;;2.75;1.80;;;;;;;3.55;100.00;98887.63;5054127;28;20109;-61
2023/12/19 02:17:00;;;;;;;2.65;1.70;;;;;;;3.61;100.00;98884.09;5072556;28;20077;-62
2023/12/19 02:19:26;;;;;;;1.88;1.20;;;;;;;3.41;100.00;98844.19;5087184;28;20510;-60
2023/12/19 02:21:52;;;;;;;4.15;1.67;;;;;;;3.61;100.00;98877.19;5052946;28;20102;-60
2023/12/19 02:24:18;;;;;;;3.67;1.60;;;;;;;3.60;100.00;98877.25;5073231;28;20122;-62
2023/12/19 02:26:43;;;;;;;3.50;1.58;;;;;;;3.33;100.00;98830.66;5075530;28;20131;-61
2023/12/19 02:29:10;;;;;;;4.40;2.22;;;;;;;3.54;100.00;98867.94;5075004;28;20123;-61
2023/12/19 02:31:36;;;;;;;5.65;2.10;;;;;;;3.54;100.00;98869.66;5073397;28;20040;-61
2023/12/19 02:34:02;;;;;;;5.32;2.42;;;;;;;3.09;100.00;98790.00;5068385;28;20089;-61
2023/12/19 02:36:28;;;;;;;6.43;1.98;;;;;;;3.54;100.00;98867.09;5056890;28;20081;-60
2023/12/19 02:38:53;;;;;;;4.65;1.70;;;;;;;3.51;100.00;98869.72;5082788;28;20458;-61
2023/12/19 02:41:20;;;;;;;4.50;1.73;;;;;;;3.48;100.00;98864.63;5076181;28;20040;-61
2023/12/19 02:43:45;;;;;;;2.85;1.40;;;;;;;3.22;100.00;98832.56;5069291;28;20071;-61
2023/12/19 02:46:11;;;;;;;3.63;1.23;;;;;;;3.41;100.00;98857.03;5075814;28;20473;-60
2023/12/19 02:48:37;;;;;;;3.83;1.90;;;;;;;3.42;100.00;98876.72;5075841;28;20052;-60
2023/12/19 02:51:03;;;;;;;3.58;1.52;;;;;;;3.36;100.00;98876.81;5075373;28;20573;-61
2023/12/19 02:53:29;;;;;;;2.67;1.35;;;;;;;3.27;100.00;98859.03;5074392;28;20059;-61
2023/12/19 02:55:55;;;;;;;5.15;1.67;;;;;;;3.31;100.00;98872.66;5073937;28;20063;-62
2023/12/19 02:58:21;;;;;;;2.08;1.20;;;;;;;3.36;100.00;98869.13;5075721;28;20587;-62
2023/12/19 03:00:46;;;;;;;1.75;1.20;;;;;;;3.34;100.00;98868.31;5075251;28;20043;-62
2023/12/19 03:03:13;;;;;;;2.53;1.55;;;;;;;3.15;100.00;98841.25;5076557;28;20044;-61
2023/12/19 03:05:38;;;;;;;2.45;1.20;;;;;;;3.06;100.00;98836.31;5072579;28;20070;-61
2023/12/19 03:08:04;;;;;;;2.60;1.15;;;;;;;3.34;100.00;98870.91;5069100;28;20032;-61
2023/12/19 03:10:30;;;;;;;3.13;1.30;;;;;;;3.17;100.00;98836.09;5070388;28;20532;-61
2023/12/19 03:12:56;;;;;;;2.90;1.10;;;;;;;3.34;100.00;98862.34;5067388;28;20083;-60
2023/12/19 03:15:24;;;;;;;1.27;0.68;;;;;;;3.36;100.00;98858.00;5075694;28;20040;-61
2023/12/19 03:17:50;;;;;;;1.48;1.00;;;;;;;3.13;100.00;98827.63;5075258;28;20051;-62
2023/12/19 03:20:16;;;;;;;2.20;1.30;;;;;;;3.35;100.00;98857.16;5077011;28;20036;-61
2023/12/19 03:22:42;;;;;;;1.73;1.10;;;;;;;3.33;100.00;98858.91;5080042;28;20039;-59
2023/12/19 03:25:08;;;;;;;2.95;1.23;;;;;;;3.33;100.00;98851.22;5081224;28;20032;-62
2023/12/19 03:27:33;;;;;;;3.25;1.20;;;;;;;3.31;100.00;98859.81;5075098;28;20040;-61
2023/12/19 03:30:00;;;;;;;1.27;0.93;;;;;;;3.27;100.00;98848.75;5072676;28;20044;-61
2023/12/19 03:32:25;;;;;;;1.83;1.33;;;;;;;3.29;100.00;98846.16;5053141;28;20040;-63
2023/12/19 03:34:51;;;;;;;2.50;1.30;;;;;;;3.23;100.00;98838.56;5073971;28;20043;-63
2023/12/19 03:37:17;;;;;;;4.63;1.30;;;;;;;3.32;100.00;98841.81;5075116;28;20044;-61
2023/12/19 03:39:43;;;;;;;2.05;1.05;;;;;;;3.27;100.00;98842.75;5056235;28;20134;-62
2023/12/19 03:42:09;;;;;;;2.05;1.10;;;;;;;3.03;100.00;98805.56;5074618;28;20507;-63
2023/12/19 03:44:34;;;;;;;1.35;0.73;;;;;;;3.26;100.00;98852.19;5074891;28;20036;-60
2023/12/19 03:47:00;;;;;;;2.17;0.98;;;;;;;3.02;100.00;98808.16;5074519;28;20718;-60
2023/12/19 03:49:27;;;;;;;4.55;1.67;;;;;;;3.24;100.00;98851.38;5074936;28;20039;-62
2023/12/19 03:51:53;;;;;;;2.72;1.20;;;;;;;3.24;100.00;98850.53;5073690;28;20035;-62
2023/12/19 03:54:19;;;;;;;0.60;0.50;;;;;;;3.23;100.00;98849.69;5073678;28;20097;-62
2023/12/19 03:56:45;;;;;;;1.65;0.80;;;;;;;3.15;100.00;98843.81;5074786;28;20039;-61
2023/12/19 03:59:11;;;;;;;1.77;0.70;;;;;;;3.16;100.00;98840.41;5081701;28;20117;-61
2023/12/19 04:01:44;;;;;;;0.90;0.55;;;;;;;3.19;100.00;98840.31;5074744;28;20052;-62
2023/12/19 04:04:11;;;;;;;0.63;0.45;;;;;;;2.98;100.00;98823.59;5082520;28;20050;-61
2023/12/19 04:06:42;;;;;;;0.95;0.50;;;;;;;2.94;100.00;98811.69;5065463;28;20151;-62
2023/12/19 04:09:08;;;;;;;1.52;0.65;;;;;;;2.65;100.00;98765.16;5075178;28;20074;-62
2023/12/19 04:11:34;;;;;;;0.90;0.70;;;;;;;3.04;100.00;98842.31;5076698;28;20039;-62
2023/12/19 04:14:00;;;;;;;0.40;0.40;;;;;;;3.09;100.00;98837.97;5072875;28;20465;-61
2023/12/19 04:16:26;;;;;;;0.95;0.47;;;;;;;3.06;100.00;98838.03;5053606;28;20446;-61
2023/12/19 04:18:52;;;;;;;1.65;0.50;;;;;;;3.06;100.00;98848.28;5055891;28;20048;-62
2023/12/19 04:21:18;;;;;;;0.25;0.25;;;;;;;3.06;100.00;98849.13;5073019;28;20535;-61
2023/12/19 04:23:44;;;;;;;1.95;0.30;;;;;;;2.97;100.00;98829.63;5082503;28;20407;-62
2023/12/19 04:26:20;;;;;;;2.13;0.50;;;;;;;3.01;100.00;98820.13;5076315;28;20138;-60
2023/12/19 04:28:46;;;;;;;3.00;0.43;;;;;;;3.00;100.00;98808.16;5073254;28;21007;-61
2023/12/19 04:31:12;;;;;;;0.65;0.40;;;;;;;2.99;100.00;98816.72;5089605;28;20040;-62
2023/12/19 04:33:38;;;;;;;0.63;0.30;;;;;;;3.01;100.00;98798.75;5073276;28;20037;-61
2023/12/19 04:36:09;;;;;;;0.68;0.38;;;;;;;2.88;100.00;98762.16;5083131;28;20044;-62
2023/12/19 04:38:36;;;;;;;0.20;0.20;;;;;;;2.86;100.00;98743.41;5073030;28;20066;-63
2023/12/19 04:41:03;;;;;;;1.15;0.73;;;;;;;2.82;100.00;98750.31;5068208;28;20490;-62
2023/12/19 04:43:29;;;;;;;2.00;0.60;;;;;;;2.96;100.00;98789.41;5072886;28;20090;-65
2023/12/19 04:45:55;;;;;;;2.88;0.77;;;;;;;2.72;100.00;98761.59;5078643;28;20750;-61
2023/12/19 04:48:21;;;;;;;2.28;0.60;;;;;;;2.70;100.00;98752.25;5074461;28;20078;-62
2023/12/19 04:50:47;;;;;;;6.32;1.05;;;;;;;2.89;100.00;98790.38;5064042;28;20545;-62
2023/12/19 04:53:12;;;;;;;1.33;0.55;;;;;;;2.65;100.00;98741.22;5080337;28;20035;-62
2023/12/19 04:55:38;;;;;;;1.75;0.60;;;;;;;2.81;100.00;98778.56;5068054;28;20048;-62
2023/12/19 04:58:05;;;;;;;2.78;0.80;;;;;;;2.80;100.00;98769.16;5060268;28;20047;-62
2023/12/19 05:00:30;;;;;;;1.42;0.40;;;;;;;2.77;100.00;98780.34;5088163;28;20040;-62
2023/12/19 05:02:57;;;;;;;1.60;0.47;;;;;;;2.71;100.00;98765.06;5070386;28;20048;-62
2023/12/19 05:05:23;;;;;;;1.10;0.40;;;;;;;2.69;100.00;98753.97;5084606;28;20411;-62
2023/12/19 05:07:48;;;;;;;1.83;0.57;;;;;;;2.77;100.00;98751.28;5072599;28;20054;-62
2023/12/19 05:10:14;;;;;;;1.15;0.60;;;;;;;2.75;100.00;98753.00;5072967;28;20063;-61
2023/12/19 05:12:40;;;;;;;0.98;0.57;;;;;;;2.74;100.00;98754.72;5073092;28;20044;-61
2023/12/19 05:15:07;;;;;;;2.35;0.47;;;;;;;2.69;100.00;98748.00;5055986;28;20123;-63
2023/12/19 05:17:33;;;;;;;0.45;0.25;;;;;;;2.60;100.00;98731.03;5079965;28;20035;-60
2023/12/19 05:19:59;;;;;;;0.57;0.30;;;;;;;2.78;100.00;98774.31;5077973;28;20047;-62
2023/12/19 05:22:25;;;;;;;0.70;0.40;;;;;;;2.70;100.00;98763.38;5079523;28;20169;-62
2023/12/19 05:24:51;;;;;;;0.60;0.30;;;;;;;2.81;100.00;98768.31;5062080;28;20073;-60
2023/12/19 05:27:17;;;;;;;0.70;0.40;;;;;;;2.77;100.00;98772.66;5071333;28;20147;-61
2023/12/19 05:29:43;;;;;;;0.95;0.50;;;;;;;2.73;100.00;98754.75;5069970;28;20048;-61
2023/12/19 05:32:10;;;;;;;0.65;0.40;;;;;;;2.67;100.00;98735.19;5084179;28;21088;-62
2023/12/19 05:34:36;;;;;;;1.02;0.70;;;;;;;2.68;100.00;98729.19;5083691;28;20043;-61
2023/12/19 05:37:03;;;;;;;1.33;0.50;;;;;;;2.67;100.00;98740.31;5067342;28;20047;-59
2023/12/19 05:39:30;;;;;;;2.80;0.95;;;;;;;2.66;100.00;98700.16;5076836;28;20040;-63
2023/12/19 05:41:58;;;;;;;2.60;1.02;;;;;;;2.65;100.00;98724.13;5076037;28;20113;-61
2023/12/19 05:44:24;;;;;;;3.22;1.02;;;;;;;2.47;100.00;98673.13;5081587;28;20047;-62
2023/12/19 05:46:51;;;;;;;2.00;0.98;;;;;;;2.64;100.00;98693.34;5078129;28;20044;-62
2023/12/19 05:49:18;;;;;;;6.15;1.67;;;;;;;2.42;100.00;98656.97;5083309;28;20036;-62
2023/12/19 05:51:44;;;;;;;1.95;0.80;;;;;;;2.67;100.00;98693.31;5068581;28;20193;-61
2023/12/19 05:54:10;;;;;;;2.10;1.00;;;;;;;2.67;100.00;98701.00;5081543;28;20040;-63
2023/12/19 05:56:36;;;;;;;2.35;0.80;;;;;;;2.66;100.00;98701.88;5080848;28;20733;-62
2023/12/19 05:59:02;;;;;;;1.88;0.85;;;;;;;2.65;100.00;98695.03;5087665;28;20044;-63
2023/12/19 06:01:28;;;;;;;4.13;1.25;;;;;;;2.65;100.00;98701.03;5071427;28;20135;-61
2023/12/19 06:03:54;;;;;;;2.28;0.90;;;;;;;2.70;100.00;98712.03;5071194;28;20821;-61
2023/12/19 06:06:21;;;;;;;2.30;0.90;;;;;;;2.66;100.00;98707.84;5085163;28;20511;-62
2023/12/19 06:08:47;;;;;;;3.25;0.73;;;;;;;2.69;100.00;98706.94;5079915;28;20040;-62
2023/12/19 06:11:13;;;;;;;2.35;1.30;;;;;;;2.65;100.00;98687.34;5079697;28;20519;-61
2023/12/19 06:13:39;;;;;;;1.00;0.55;;;;;;;2.64;100.00;98694.19;5085618;28;20145;-61
2023/12/19 06:16:06;;;;;;;1.88;0.88;;;;;;;2.60;100.00;98690.00;5072083;28;20515;-61
2023/12/19 06:18:32;;;;;;;1.80;0.63;;;;;;;2.59;100.00;98695.16;5088292;28;20422;-62
2023/12/19 06:21:00;;;;;;;3.63;1.00;;;;;;;2.62;100.00;98697.66;5087061;28;20040;-63
2023/12/19 06:23:27;;;;;;;1.38;1.00;;;;;;;2.56;100.00;98686.63;5089337;28;20629;-61
2023/12/19 06:25:53;;;;;;;2.67;1.40;;;;;;;2.58;100.00;98690.88;5083837;28;20146;-61
2023/12/19 06:28:19;;;;;;;4.50;1.00;;;;;;;2.60;100.00;98700.25;5083622;28;20485;-61
2023/12/19 06:30:45;;;;;;;0.70;0.50;;;;;;;2.53;100.00;98696.94;5084872;28;20044;-62
2023/12/19 06:33:11;;;;;;;2.15;1.10;;;;;;;2.55;100.00;98692.66;5084757;28;20527;-60
2023/12/19 06:35:43;;;;;;;2.33;1.10;;;;;;;2.61;100.00;98678.00;5088071;28;20088;-62
2023/12/19 06:38:09;;;;;;;2.63;1.00;;;;;;;2.50;100.00;98657.69;5085672;28;20040;-62
2023/12/19 06:40:36;;;;;;;1.38;0.77;;;;;;;2.63;100.00;98694.22;5070087;28;20043;-62
2023/12/19 06:43:03;;;;;;;0.77;0.40;;;;;;;2.60;100.00;98687.44;5079096;28;20123;-61
2023/12/19 06:45:29;;;;;;;2.38;1.10;;;;;;;2.60;100.00;98668.63;5083194;28;20050;-60
2023/12/19 06:47:55;;;;;;;3.08;1.30;;;;;;;2.63;100.00;98664.28;5073896;28;20037;-63
2023/12/19 06:50:22;;;;;;;3.10;1.27;;;;;;;2.62;100.00;98657.44;5085025;28;20067;-61
2023/12/19 06:52:48;;;;;;;2.92;1.30;;;;;;;2.67;100.00;98658.19;5084068;28;20050;-62
2023/12/19 06:55:14;;;;;;;3.17;1.52;;;;;;;2.70;100.00;98665.00;5081462;28;20036;-62
2023/12/19 06:57:40;;;;;;;2.35;1.23;;;;;;;2.67;100.00;98650.50;5084108;28;20036;-60
2023/12/19 07:00:06;;;;;;;3.60;1.45;;;;;;;2.38;100.00;98604.06;5085703;28;20139;-62
2023/12/19 07:02:35;;;;;;;3.40;1.20;;;;;;;2.64;100.00;98660.00;5087913;28;20149;-62
2023/12/19 07:05:02;;;;;;;1.52;1.00;;;;;;;2.59;100.00;98651.53;5084133;28;20503;-62
2023/12/19 07:07:29;;;;;;;3.65;1.58;;;;;;;2.63;100.00;98648.88;5080465;28;20044;-61
2023/12/19 07:09:55;;;;;;;3.05;1.52;;;;;;;2.62;100.00;98646.34;5075855;28;20471;-62
2023/12/19 07:12:21;;;;;;;2.92;1.50;;;;;;;2.46;100.00;98620.16;5072752;28;20036;-61
2023/12/19 07:14:47;;;;;;;4.63;1.08;;;;;;;2.46;100.00;98617.59;5073716;28;20047;-60
2023/12/19 07:17:13;;;;;;;1.95;0.80;;;;;;;2.68;100.00;98634.22;5067353;28;20075;-61
2023/12/19 07:19:40;;;;;;;1.10;0.65;;;;;;;2.74;100.00;98613.59;5075938;28;20070;-61
2023/12/19 07:22:06;;;;;;;1.75;1.20;;;;;;;2.78;100.00;98620.34;5080629;28;20043;-62
2023/12/19 07:24:32;;;;;;;1.83;0.70;;;;;;;2.79;100.00;98624.59;5085112;28;20119;-62
2023/12/19 07:26:58;;;;;;;0.55;0.45;;;;;;;2.76;100.00;98604.16;5086804;28;20172;-60
2023/12/19 07:29:24;;;;;;;0.65;0.50;;;;;;;2.75;100.00;98597.31;5081332;28;20615;-60
2023/12/19 07:31:51;;;;;;;3.13;0.90;;;;;;;2.49;100.00;98554.25;5071029;28;20039;-60
2023/12/19 07:34:17;;;;;;;3.25;1.10;;;;;;;2.75;100.00;98586.22;5082515;28;20040;-62
2023/12/19 07:36:45;;;;;;;4.05;1.38;;;;;;;2.80;100.00;98579.25;5064213;28;20043;-62
2023/12/19 07:39:11;;;;;;;3.33;1.40;;;;;;;2.88;100.00;98582.50;5076593;28;20044;-61
2023/12/19 07:41:37;;;;;;;4.18;1.17;;;;;;;2.95;100.00;98584.06;5092518;28;20530;-61
2023/12/19 07:44:09;;;;;;;1.15;0.68;;;;;;;2.95;100.00;98597.75;5082396;28;20516;-60
2023/12/19 07:46:40;;;;;;;4.15;1.33;;;;;;;2.73;100.00;98555.44;5084601;28;20108;-62
2023/12/19 07:49:06;;;;;;;2.05;0.88;;;;;;;2.69;100.00;98535.00;5085298;28;20035;-61
2023/12/19 07:51:32;;;;;;;4.55;1.50;;;;;;;2.89;100.00;98569.63;5051672;28;20043;-61
2023/12/19 07:53:57;;;;;;;2.63;1.13;;;;;;;2.89;100.00;98553.38;5086965;28;20106;-63
2023/12/19 07:56:23;;;;;;;2.95;0.90;;;;;;;2.89;100.00;98556.81;5084512;28;20036;-61
2023/12/19 07:58:49;;;;;;;3.70;1.17;;;;;;;2.92;100.00;98568.75;5083082;28;20109;-61
2023/12/19 08:01:16;;;;;;;1.75;0.95;;;;;;;2.71;100.00;98526.41;5087027;28;20533;-61
2023/12/19 08:03:43;;;;;;;5.45;1.55;;;;;;;2.92;100.00;98543.06;5085456;28;20040;-61
2023/12/19 08:06:10;;;;;;;6.45;1.95;;;;;;;2.93;100.00;98537.06;5083724;28;20041;-60
2023/12/19 08:08:35;;;;;;;2.35;1.30;;;;;;;2.94;100.00;98537.00;5084158;28;20044;-62
2023/12/19 08:11:01;;;;;;;3.35;1.10;;;;;;;2.73;100.00;98500.72;5082300;28;20076;-61
2023/12/19 08:13:27;;;;;;;2.60;1.38;;;;;;;2.90;100.00;98524.28;5084029;28;20486;-61
2023/12/19 08:15:53;;;;;;;3.10;1.55;;;;;;;2.98;100.00;98517.28;5084180;28;20134;-62
2023/12/19 08:18:20;;;;;;;2.03;1.15;;;;;;;2.79;100.00;98504.00;5085691;28;20071;-62
2023/12/19 08:20:46;;;;;;;2.08;1.50;;;;;;;2.79;100.00;98504.00;5084101;28;20048;-61
2023/12/19 08:23:12;;;;;;;2.67;1.13;;;;;;;3.01;100.00;98526.63;5085529;28;20093;-61
2023/12/19 08:25:41;;;;;;;7.45;1.90;;;;;;;2.75;100.00;98475.88;5082648;28;20048;-61
2023/12/19 08:28:08;;;;;;;2.55;1.15;;;;;;;2.98;100.00;98515.53;5086231;28;20044;-62
2023/12/19 08:30:34;;;;;;;5.90;2.20;;;;;;;3.00;100.00;98497.53;5081142;28;20104;-61
2023/12/19 08:33:00;;;;;;;3.40;1.35;;;;;;;3.03;100.00;98489.78;5081860;28;20097;-61
2023/12/19 08:35:26;;;;;;;3.40;1.60;;;;;;;2.95;100.00;98466.84;5076215;28;20475;-61
2023/12/19 08:37:52;;;;;;;2.33;1.63;;;;;;;3.08;100.00;98482.81;5062143;28;20130;-62
2023/12/19 08:40:19;;;;;;;1.70;1.10;;;;;;;2.87;100.00;98419.13;5063707;28;20130;-62
2023/12/19 08:42:44;;;;;;;3.13;1.73;;;;;;;3.05;100.00;98459.75;5083627;28;20040;-62
2023/12/19 08:45:17;;;;;;;3.70;1.83;;;;;;;3.06;100.00;98445.19;5082208;28;20037;-61
2023/12/19 08:47:44;;;;;;;3.65;1.08;;;;;;;3.12;100.00;98443.34;5080864;28;20039;-61
2023/12/19 08:50:12;;;;;;;4.95;1.48;;;;;;;3.12;100.00;98439.91;5082485;28;20044;-63
2023/12/19 08:52:40;;;;;;;3.40;1.27;;;;;;;3.15;100.00;98439.84;5063662;28;20413;-61
2023/12/19 08:55:08;;;;;;;2.85;1.10;;;;;;;3.09;100.00;98424.59;5068187;28;20035;-62
2023/12/19 08:57:35;;;;;;;4.65;1.90;;;;;;;3.22;100.00;98429.38;5080329;28;20046;-62
2023/12/19 09:00:04;;;;;;;2.50;1.55;;;;;;;2.81;100.00;98360.25;5085135;28;20069;-62
2023/12/19 09:02:31;;;;;;;7.32;2.15;;;;;;;3.28;100.00;98410.41;5075058;28;20040;-63
2023/12/19 09:04:57;;;;;;;2.47;1.25;;;;;;;3.23;100.00;98407.97;5078992;28;20051;-61
2023/12/19 09:07:23;;;;;;;1.40;0.80;;;;;;;3.02;100.00;98346.03;5072048;28;20039;-61
2023/12/19 09:09:51;;;;;;;2.72;1.70;;;;;;;3.25;100.00;98400.19;5082219;28;20044;-55
2023/12/19 09:12:17;;;;;;;1.95;1.17;;;;;;;3.24;100.00;98385.69;5078819;28;20050;-62
2023/12/19 09:14:43;;;;;;;6.35;1.50;;;;;;;3.23;100.00;98377.16;5071067;28;20044;-62
2023/12/19 09:17:09;;;;;;;1.38;0.90;;;;;;;3.25;100.00;98372.78;5071654;28;20044;-62
2023/12/19 09:19:37;;;;;;;1.58;1.10;;;;;;;3.20;100.00;98355.81;5063460;28;20039;-60
2023/12/19 09:22:03;;;;;;;2.75;1.25;;;;;;;3.28;100.00;98361.63;5066773;28;20047;-61
2023/12/19 09:24:30;;;;;;;0.93;0.80;;;;;;;3.24;100.00;98345.47;5081579;28;20059;-61
2023/12/19 09:26:57;;;;;;;2.42;1.60;;;;;;;2.78;100.00;98281.59;5071494;28;20044;-62
2023/12/19 09:29:25;;;;;;;7.90;1.25;;;;;;;3.22;100.00;98338.66;5081849;28;20044;-62
2023/12/19 09:31:52;;;;;;;2.63;0.98;;;;;;;3.22;100.00;98338.66;5082603;28;20042;-62
2023/12/19 09:34:21;;;;;;;2.03;1.50;;;;;;;3.21;100.00;98311.28;5071712;28;20051;-59
2023/12/19 09:36:47;;;;;;;2.92;1.45;;;;;;;3.25;100.00;98312.88;5077805;28;20182;-61
2023/12/19 09:39:15;;;;;;;1.63;0.98;;;;;;;3.25;100.00;98297.47;5080397;28;20135;-62
2023/12/19 09:41:47;;;;;;;2.20;1.50;;;;;;;3.28;100.00;98282.84;5080291;28;20084;-61
2023/12/19 09:44:13;;;;;;;1.73;1.05;;;;;;;2.84;100.00;98199.34;5067347;28;20440;-61
2023/12/19 09:46:41;;;;;;;2.83;1.23;;;;;;;3.16;100.00;98265.19;5092414;28;20142;-63
2023/12/19 09:49:11;;;;;;;8.15;1.10;;;;;;;3.13;100.00;98265.28;5078297;28;20503;-61
2023/12/19 09:51:39;;;;;;;1.95;0.52;;;;;;;3.09;100.00;98275.69;5082210;28;20147;-55
2023/12/19 09:54:05;;;;;;;2.03;0.82;;;;;;;3.13;100.00;98296.09;5082055;28;20795;-58
2023/12/19 09:56:31;;;;;;;2.00;1.10;;;;;;;3.06;100.00;98274.03;5084489;28;20043;-58
2023/12/19 09:59:03;;;;;;;1.65;0.90;;;;;;;3.02;100.00;98264.75;5064510;28;20470;-61
2023/12/19 10:01:29;;;;;;;0.80;0.60;;;;;;;3.03;100.00;98265.59;5083430;28;20040;-61
2023/12/19 10:03:55;;;;;;;2.63;0.90;;;;;;;2.75;100.00;98221.84;5054095;28;20449;-63
2023/12/19 10:06:25;;;;;;;3.20;1.20;;;;;;;2.94;100.00;98256.38;5081965;28;20036;-61
2023/12/19 10:08:54;;;;;;;3.33;1.25;;;;;;;2.87;100.00;98204.41;5079769;28;20044;-61
2023/12/19 10:11:24;;;;;;;2.83;1.17;;;;;;;2.97;100.00;98202.41;5064294;28;20482;-63
2023/12/19 10:13:50;;;;;;;0.82;0.80;;;;;;;2.94;100.00;98192.22;5061160;28;20175;-63
2023/12/19 10:16:19;;;;;;;6.68;1.25;;;;;;;2.93;100.00;98178.53;5061119;28;20539;-62
2023/12/19 10:18:53;;;;;;;1.60;0.93;;;;;;;2.89;100.00;98176.97;5061979;28;20118;-61
2023/12/19 10:21:22;;;;;;;1.73;0.80;;;;;;;2.93;100.00;98175.97;5062709;28;20624;-62
2023/12/19 10:23:47;;;;;;;1.60;1.02;;;;;;;2.96;100.00;98164.81;5062193;28;20098;-62
2023/12/19 10:26:13;;;;;;;2.65;1.35;;;;;;;2.84;100.00;98147.16;5076823;28;20466;-62
2023/12/19 10:28:40;;;;;;;0.82;0.63;;;;;;;2.99;100.00;98169.84;5053038;28;20073;-62
2023/12/19 10:31:06;;;;;;;1.08;0.80;;;;;;;2.98;100.00;98170.75;5070376;28;20035;-62
2023/12/19 10:33:48;;;;;;;2.13;0.95;;;;;;;2.99;100.00;98154.44;5088104;28;20040;-62
2023/12/19 10:36:28;;;;;;;1.30;1.10;;;;;;;2.98;100.00;98157.91;5086796;28;20040;-62
2023/12/19 10:38:56;;;;;;;1.02;0.88;;;;;;;2.98;100.00;98139.94;5069529;28;20048;-62
2023/12/19 10:41:28;;;;;;;2.05;1.23;;;;;;;2.99;100.00;98123.63;5053172;28;20048;-62
2023/12/19 10:43:57;;;;;;;1.90;1.10;;;;;;;2.97;100.00;98125.41;5087274;28;20147;-62
2023/12/19 10:46:31;;;;;;;3.47;1.42;;;;;;;3.01;100.00;98126.16;5090071;28;20036;-62
2023/12/19 10:49:01;;;;;;;3.30;1.05;;;;;;;3.01;100.00;98113.31;5090265;28;20530;-61
2023/12/19 10:51:41;;;;;;;0.95;0.60;;;;;;;3.05;100.00;98136.28;5091595;28;20137;-61
2023/12/19 10:54:08;;;;;;;3.25;1.10;;;;;;;3.04;100.00;98087.56;5091377;28;20130;-62
2023/12/19 10:56:54;;;;;;;1.88;1.10;;;;;;;2.96;100.00;98070.69;5089953;28;20388;-62
2023/12/19 10:59:48;;;;;;;3.17;1.23;;;;;;;3.16;100.00;98092.34;5089959;28;20531;-61
2023/12/19 11:02:47;;;;;;;2.00;0.57;;;;;;;3.09;100.00;98076.25;5089209;28;20490;-62
2023/12/19 11:05:40;;;;;;;2.20;1.13;;;;;;;3.10;100.00;98056.56;5069686;28;20040;-61
2023/12/19 11:08:15;;;;;;;2.67;0.90;;;;;;;3.13;100.00;98049.63;5069827;28;20044;-62
2023/12/19 11:10:45;;;;;;;1.52;1.05;;;;;;;3.08;100.00;98071.19;5079691;28;20039;-64
2023/12/19 11:13:14;;;;;;;1.05;0.52;;;;;;;3.08;100.00;98035.25;5085099;28;20118;-63
2023/12/19 11:15:51;;;;;;;3.42;1.30;;;;;;;3.10;100.00;98021.47;5073814;28;20066;-62
2023/12/19 11:18:25;;;;;;;1.75;1.02;;;;;;;3.16;100.00;98034.13;5079661;28;20587;-64
2023/12/19 11:21:00;;;;;;;2.35;1.38;;;;;;;3.21;100.00;98026.28;5089041;28;20031;-61
2023/12/19 11:23:42;;;;;;;2.22;1.20;;;;;;;3.15;100.00;98011.06;5086551;28;20139;-62
2023/12/19 11:26:24;;;;;;;1.50;0.88;;;;;;;3.22;100.00;98025.38;5072171;28;20044;-63
2023/12/19 11:28:50;;;;;;;2.50;1.27;;;;;;;3.10;100.00;98016.34;5088866;28;20171;-62
2023/12/19 11:31:32;;;;;;;2.85;1.67;;;;;;;3.09;100.00;98008.72;5088867;28;20127;-63
2023/12/19 11:34:03;;;;;;;3.25;1.73;;;;;;;3.10;100.00;97997.53;5089361;28;20047;-63